Time;durP1;ratioP1;P1;durP2;ratioP2;P2;SDS_P1;SDS_P2;PMS_P1;PMS_P2;Temp;Humidity;BMP_temperature;BMP_pressure;BME280_temperature;BME280_humidity;BME280_pressure;Samples;Min_cycle;Max_cycle;Signal;HPM_P1;HPM_P2
2022/05/15 00:02:40;;;;;;;16.00;7.18;;;13.20;99.90;;;;;;4994784;28;20046;-60
2022/05/15 00:05:08;;;;;;;7.30;5.70;;;13.10;99.90;;;;;;5010434;28;20108;-61
2022/05/15 00:07:35;;;;;;;8.15;5.65;;;13.10;99.90;;;;;;5010086;28;20046;-61
2022/05/15 00:10:06;;;;;;;13.38;6.30;;;13.10;99.90;;;;;;5009376;28;20049;-59
2022/05/15 00:12:33;;;;;;;9.82;6.78;;;13.10;99.90;;;;;;4995669;28;20038;-60
2022/05/15 00:15:00;;;;;;;8.88;6.20;;;13.10;99.90;;;;;;4995466;28;20053;-61
2022/05/15 00:17:26;;;;;;;;;;;13.00;99.90;;;;;;4989593;28;20049;-61
2022/05/15 00:19:53;;;;;;;8.18;5.38;;;13.00;99.90;;;;;;4994364;28;19933;-60
2022/05/15 00:22:20;;;;;;;;;;;12.90;99.90;;;;;;4995114;28;20103;-60
2022/05/15 00:24:47;;;;;;;12.18;6.20;;;12.90;99.90;;;;;;4995449;28;19925;-61
2022/05/15 00:27:14;;;;;;;7.32;5.65;;;12.90;99.90;;;;;;4994365;28;20119;-61
2022/05/15 00:29:41;;;;;;;9.60;6.15;;;12.90;99.90;;;;;;4993819;28;20140;-60
2022/05/15 00:32:08;;;;;;;9.00;5.65;;;12.90;99.90;;;;;;4994511;28;20041;-60
2022/05/15 00:34:35;;;;;;;9.30;5.68;;;12.90;99.90;;;;;;4994168;28;20069;-60
2022/05/15 00:37:02;;;;;;;7.47;5.80;;;12.90;99.90;;;;;;5009428;28;20203;-62
2022/05/15 00:39:29;;;;;;;6.45;5.07;;;12.80;99.90;;;;;;5002445;28;20070;-61
2022/05/15 00:41:56;;;;;;;9.02;6.03;;;12.80;99.90;;;;;;4959821;28;20204;-61
2022/05/15 00:44:24;;;;;;;8.68;5.43;;;12.80;99.90;;;;;;4974750;28;20057;-61
2022/05/15 00:46:50;;;;;;;;;;;12.80;99.90;;;;;;4975388;28;20065;-60
2022/05/15 00:49:17;;;;;;;7.82;5.53;;;12.70;99.90;;;;;;4973783;28;19933;-60
2022/05/15 00:51:47;;;;;;;9.80;5.82;;;12.70;99.90;;;;;;4978442;28;20771;-62
2022/05/15 00:54:32;;;;;;;10.40;5.45;;;12.70;99.90;;;;;;4994649;28;20842;-61
2022/05/15 00:57:09;;;;;;;8.70;6.00;;;12.70;99.90;;;;;;5009270;28;20050;-60
2022/05/15 00:59:47;;;;;;;12.48;6.15;;;12.60;99.90;;;;;;5008910;28;20129;-60
2022/05/15 01:02:16;;;;;;;7.90;5.32;;;12.60;99.90;;;;;;5009751;28;20050;-61
2022/05/15 01:04:44;;;;;;;5.85;5.25;;;12.60;99.90;;;;;;4993269;28;20587;-62
2022/05/15 01:07:11;;;;;;;11.10;5.88;;;12.60;99.90;;;;;;4992613;28;20065;-61
2022/05/15 01:09:39;;;;;;;8.70;6.07;;;12.60;99.90;;;;;;5009529;28;20716;-61
2022/05/15 01:12:08;;;;;;;11.02;6.18;;;12.60;99.90;;;;;;4997798;28;20053;-57
2022/05/15 01:14:38;;;;;;;11.13;5.65;;;12.50;99.90;;;;;;5001212;28;20038;-58
2022/05/15 01:17:05;;;;;;;8.85;6.25;;;12.50;99.90;;;;;;4997945;28;20046;-58
2022/05/15 01:19:39;;;;;;;10.50;5.97;;;12.50;99.90;;;;;;4993603;28;20271;-58
2022/05/15 01:22:08;;;;;;;14.63;6.55;;;12.50;99.90;;;;;;4976017;28;20331;-58
2022/05/15 01:24:36;;;;;;;14.48;6.60;;;12.50;99.90;;;;;;4993166;28;20057;-56
2022/05/15 01:27:09;;;;;;;11.02;6.38;;;12.40;99.90;;;;;;4975875;28;20096;-58
2022/05/15 01:29:42;;;;;;;12.13;6.25;;;12.40;99.90;;;;;;5009402;28;20119;-57
2022/05/15 01:32:10;;;;;;;11.00;5.43;;;12.30;99.90;;;;;;4976231;28;20096;-58
2022/05/15 01:34:39;;;;;;;10.07;6.50;;;12.30;99.90;;;;;;5009156;28;20684;-57
2022/05/15 01:37:08;;;;;;;10.10;6.47;;;12.30;99.90;;;;;;4992472;28;20046;-58
2022/05/15 01:39:36;;;;;;;10.25;5.55;;;12.30;99.90;;;;;;4992286;28;20046;-58
2022/05/15 01:42:04;;;;;;;9.27;5.63;;;12.30;99.90;;;;;;4992197;28;20062;-57
2022/05/15 01:44:32;;;;;;;6.18;4.80;;;12.30;99.90;;;;;;4992627;28;20140;-58
2022/05/15 01:47:00;;;;;;;8.43;5.78;;;12.30;99.90;;;;;;5009338;28;20050;-57
2022/05/15 01:49:27;;;;;;;6.47;4.90;;;12.30;99.90;;;;;;4993980;28;20163;-57
2022/05/15 01:51:55;;;;;;;8.07;5.30;;;12.30;99.90;;;;;;5008748;28;20054;-56
2022/05/15 01:54:23;;;;;;;7.72;5.53;;;12.30;99.90;;;;;;5006719;28;20049;-57
2022/05/15 01:56:50;;;;;;;5.65;4.93;;;12.30;99.90;;;;;;4992729;28;20917;-58
2022/05/15 01:59:19;;;;;;;7.00;5.35;;;12.30;99.90;;;;;;4993120;28;20303;-58
2022/05/15 02:01:47;;;;;;;10.95;5.18;;;12.30;99.90;;;;;;4992398;28;20104;-60
2022/05/15 02:04:14;;;;;;;8.75;6.18;;;12.20;99.90;;;;;;5009386;28;20642;-56
2022/05/15 02:06:41;;;;;;;9.43;5.32;;;12.20;99.90;;;;;;5008022;28;20334;-58
2022/05/15 02:09:09;;;;;;;11.38;5.93;;;12.20;99.90;;;;;;5009344;28;20520;-57
2022/05/15 02:11:38;;;;;;;8.82;5.93;;;12.20;99.90;;;;;;4976464;28;20050;-56
2022/05/15 02:14:06;;;;;;;8.10;5.50;;;12.20;99.90;;;;;;4995032;28;20037;-57
2022/05/15 02:16:37;;;;;;;9.40;5.18;;;12.10;99.90;;;;;;4992686;28;20084;-57
2022/05/15 02:19:05;;;;;;;8.13;5.32;;;12.10;99.90;;;;;;4992035;28;20513;-57
2022/05/15 02:21:33;;;;;;;8.32;5.20;;;12.10;99.90;;;;;;5008418;28;20053;-58
2022/05/15 02:24:00;;;;;;;10.10;4.80;;;12.10;99.90;;;;;;5009667;28;20077;-58
2022/05/15 02:26:30;;;;;;;8.07;5.63;;;12.10;99.90;;;;;;4995607;28;20524;-56
2022/05/15 02:28:58;;;;;;;6.47;4.97;;;12.00;99.90;;;;;;4995104;28;20583;-58
2022/05/15 02:31:25;;;;;;;7.35;4.97;;;12.00;99.90;;;;;;4996397;28;20779;-58
2022/05/15 02:33:52;;;;;;;8.10;5.25;;;12.00;99.90;;;;;;4995131;28;20810;-57
2022/05/15 02:36:19;;;;;;;8.60;5.40;;;12.00;99.90;;;;;;5012431;28;20038;-57
2022/05/15 02:38:48;;;;;;;10.15;6.55;;;12.00;99.90;;;;;;4987802;28;20148;-62
2022/05/15 02:41:15;;;;;;;7.15;5.82;;;11.90;99.90;;;;;;4985607;28;20042;-61
2022/05/15 02:43:42;;;;;;;6.07;5.07;;;11.90;99.90;;;;;;4976643;28;20042;-62
2022/05/15 02:46:09;;;;;;;8.65;5.40;;;11.90;99.90;;;;;;4960045;28;20140;-61
2022/05/15 02:51:22;;;;;;;7.00;5.15;;;11.80;99.90;;;;;;4992469;28;20061;-61
2022/05/15 02:53:49;;;;;;;8.05;6.05;;;11.80;99.90;;;;;;4965063;28;20077;-61
2022/05/15 02:56:21;;;;;;;9.10;5.13;;;11.80;99.90;;;;;;4977513;28;20041;-61
2022/05/15 02:58:48;;;;;;;12.77;5.93;;;11.80;99.90;;;;;;5011410;28;20337;-62
2022/05/15 03:01:15;;;;;;;6.55;5.32;;;11.80;99.90;;;;;;5004949;28;20038;-62
2022/05/15 03:03:43;;;;;;;7.68;5.40;;;11.70;99.90;;;;;;5005936;28;20128;-62
2022/05/15 03:06:11;;;;;;;7.65;5.18;;;11.70;99.90;;;;;;4994556;28;20041;-61
2022/05/15 03:08:42;;;;;;;6.45;5.22;;;11.70;99.90;;;;;;5010835;28;20041;-60
2022/05/15 03:11:10;;;;;;;9.50;5.53;;;11.70;99.90;;;;;;5011446;28;20077;-61
2022/05/15 03:13:38;;;;;;;18.00;6.45;;;11.70;99.90;;;;;;4995264;28;20038;-62
2022/05/15 03:16:07;;;;;;;6.30;5.40;;;11.70;99.90;;;;;;5008694;28;20050;-61
2022/05/15 03:18:44;;;;;;;6.68;5.30;;;11.70;99.90;;;;;;4994347;28;20034;-62
2022/05/15 03:21:28;;;;;;;6.45;5.72;;;11.70;99.90;;;;;;4995250;28;20061;-60
2022/05/15 03:24:00;;;;;;;7.47;5.85;;;11.60;99.90;;;;;;4996129;28;20121;-61
2022/05/15 03:26:29;;;;;;;8.60;5.43;;;11.60;99.90;;;;;;4994688;28;20134;-61
2022/05/15 03:28:56;;;;;;;8.00;6.28;;;11.60;99.90;;;;;;4994537;28;20041;-60
2022/05/15 03:31:23;;;;;;;9.48;6.57;;;11.60;99.90;;;;;;4995184;28;20127;-60
2022/05/15 03:33:50;;;;;;;5.60;5.10;;;11.60;99.90;;;;;;4993948;28;20128;-62
2022/05/15 03:36:18;;;;;;;7.45;5.70;;;11.50;99.90;;;;;;4994624;28;20644;-60
2022/05/15 03:38:46;;;;;;;6.93;5.63;;;11.60;99.90;;;;;;5003196;28;20046;-62
2022/05/15 03:41:14;;;;;;;8.27;6.05;;;11.60;99.90;;;;;;4999400;28;20101;-62
2022/05/15 03:43:41;;;;;;;9.82;6.25;;;11.50;99.90;;;;;;4975115;28;20065;-61
2022/05/15 03:46:08;;;;;;;9.77;6.25;;;11.50;99.90;;;;;;4974072;28;20042;-61
2022/05/15 03:48:36;;;;;;;15.82;6.78;;;11.50;99.90;;;;;;4958091;28;20057;-61
2022/05/15 03:51:03;;;;;;;12.20;6.45;;;11.40;99.90;;;;;;4974547;28;20766;-60
2022/05/15 03:53:31;;;;;;;9.50;5.80;;;11.30;99.90;;;;;;4974937;28;20042;-61
2022/05/15 03:55:59;;;;;;;11.70;8.00;;;11.30;99.90;;;;;;4992927;28;20038;-59
2022/05/15 03:58:29;;;;;;;8.20;7.00;;;11.30;99.90;;;;;;4994526;28;20046;-61
2022/05/15 04:00:56;;;;;;;16.08;6.82;;;11.30;99.90;;;;;;4995208;28;20096;-61
2022/05/15 04:03:23;;;;;;;10.85;6.22;;;11.30;99.90;;;;;;4995272;28;20058;-60
2022/05/15 04:05:50;;;;;;;11.50;6.28;;;11.20;99.90;;;;;;5010571;28;20044;-63
2022/05/15 04:08:17;;;;;;;12.63;6.75;;;11.20;99.90;;;;;;4976891;28;20061;-62
2022/05/15 04:10:45;;;;;;;13.48;7.47;;;11.30;99.90;;;;;;4994692;28;20112;-62
2022/05/15 04:13:12;;;;;;;9.57;6.50;;;11.30;99.90;;;;;;4993565;28;20037;-61
2022/05/15 04:15:40;;;;;;;8.32;5.88;;;11.30;99.90;;;;;;4993965;28;20069;-61
2022/05/15 04:18:09;;;;;;;8.80;5.95;;;11.40;99.90;;;;;;4976990;28;20044;-61
2022/05/15 04:20:36;;;;;;;9.27;6.10;;;11.40;99.90;;;;;;4994334;28;20044;-60
2022/05/15 04:23:04;;;;;;;13.05;7.03;;;11.50;99.90;;;;;;5009656;28;20104;-61
2022/05/15 04:25:31;;;;;;;8.85;7.00;;;11.50;99.90;;;;;;4993191;28;20046;-61
2022/05/15 04:27:58;;;;;;;9.38;6.55;;;11.50;99.90;;;;;;4993657;28;20049;-61
2022/05/15 04:30:27;;;;;;;8.25;5.93;;;11.50;99.90;;;;;;4993308;28;20064;-58
2022/05/15 04:32:54;;;;;;;12.00;6.90;;;11.50;99.90;;;;;;4993763;28;20607;-62
2022/05/15 04:35:23;;;;;;;10.25;6.95;;;11.50;99.90;;;;;;5008882;28;20034;-62
2022/05/15 04:37:51;;;;;;;9.68;5.90;;;11.60;99.90;;;;;;5006347;28;20069;-60
2022/05/15 04:40:20;;;;;;;9.57;6.18;;;11.60;99.90;;;;;;4986884;28;20041;-63
2022/05/15 04:42:48;;;;;;;9.38;7.38;;;11.70;99.90;;;;;;4983819;28;20075;-61
2022/05/15 04:45:15;;;;;;;12.38;7.50;;;11.70;99.90;;;;;;4994456;28;20140;-61
2022/05/15 04:47:46;;;;;;;9.23;7.15;;;11.80;99.90;;;;;;4992384;28;20052;-64
2022/05/15 04:50:14;;;;;;;11.35;7.35;;;11.80;99.90;;;;;;4994437;28;20057;-60
2022/05/15 04:52:43;;;;;;;14.57;7.43;;;11.90;99.90;;;;;;4994614;28;20046;-54
2022/05/15 04:55:11;;;;;;;7.63;6.07;;;12.00;99.90;;;;;;4993266;28;20046;-53
2022/05/15 04:57:39;;;;;;;13.32;7.43;;;12.10;99.90;;;;;;5007439;28;20099;-55
2022/05/15 05:00:10;;;;;;;14.55;6.63;;;12.10;99.90;;;;;;5013212;28;20067;-53
2022/05/15 05:02:38;;;;;;;8.00;6.72;;;12.10;99.90;;;;;;5012495;28;20053;-51
2022/05/15 05:05:10;;;;;;;8.88;6.85;;;12.20;99.90;;;;;;5013757;28;20379;-52
2022/05/15 05:07:38;;;;;;;15.45;7.05;;;12.20;99.90;;;;;;4996005;28;20038;-51
2022/05/15 05:10:10;;;;;;;8.43;7.15;;;12.30;99.90;;;;;;5013445;28;20052;-50
2022/05/15 05:12:37;;;;;;;15.18;8.40;;;12.40;99.90;;;;;;4996485;28;20061;-51
2022/05/15 05:15:06;;;;;;;10.27;7.05;;;12.50;99.90;;;;;;5014375;28;20065;-49
2022/05/15 05:17:33;;;;;;;8.20;6.90;;;12.60;99.90;;;;;;4978818;28;20046;-52
2022/05/15 05:20:00;;;;;;;9.15;7.10;;;12.60;99.90;;;;;;5009625;28;20038;-52
2022/05/15 05:22:27;;;;;;;9.75;6.72;;;12.70;99.90;;;;;;5009617;28;20046;-53
2022/05/15 05:24:54;;;;;;;8.00;7.00;;;12.80;99.90;;;;;;4992805;28;20054;-50
2022/05/15 05:27:23;;;;;;;13.43;7.60;;;12.80;99.90;;;;;;4993031;28;20045;-51
2022/05/15 05:29:51;;;;;;;10.82;7.65;;;12.90;99.90;;;;;;4994419;28;20057;-53
2022/05/15 05:32:18;;;;;;;10.40;8.13;;;13.00;99.90;;;;;;4993305;28;20427;-60
2022/05/15 05:34:45;;;;;;;10.93;7.25;;;13.00;99.90;;;;;;5008778;28;20046;-61
2022/05/15 05:37:12;;;;;;;11.35;7.10;;;13.10;99.90;;;;;;4992715;28;20038;-65
2022/05/15 05:39:39;;;;;;;8.30;6.07;;;13.20;99.90;;;;;;4983373;28;20050;-62
2022/05/15 05:42:07;;;;;;;10.45;7.10;;;13.20;99.90;;;;;;4991766;28;20605;-67
2022/05/15 05:44:34;;;;;;;10.85;6.75;;;13.30;99.90;;;;;;4992991;28;20148;-56
2022/05/15 05:47:01;;;;;;;9.52;6.53;;;13.40;99.90;;;;;;4989688;28;20161;-56
2022/05/15 05:49:29;;;;;;;8.85;6.13;;;13.50;99.90;;;;;;4974234;28;20065;-55
2022/05/15 05:51:56;;;;;;;11.68;6.95;;;13.60;99.90;;;;;;4972688;28;20042;-55
2022/05/15 05:54:23;;;;;;;8.15;6.55;;;13.70;99.90;;;;;;4975059;28;20078;-57
2022/05/15 05:56:50;;;;;;;7.03;6.25;;;13.80;99.90;;;;;;4954339;28;20047;-57
2022/05/15 05:59:18;;;;;;;9.02;6.15;;;13.90;99.90;;;;;;4971100;28;20117;-55
2022/05/15 06:01:45;;;;;;;9.18;5.72;;;13.90;99.90;;;;;;4959107;28;20035;-57
2022/05/15 06:06:58;;;;;;;10.70;7.30;;;14.20;99.90;;;;;;4973904;28;20050;-57
2022/05/15 06:09:25;;;;;;;12.90;7.07;;;14.30;99.90;;;;;;4956924;28;20046;-58
2022/05/15 06:11:53;;;;;;;10.68;6.90;;;14.50;99.90;;;;;;4957681;28;20049;-62
2022/05/15 06:14:20;;;;;;;11.60;7.78;;;14.60;99.90;;;;;;4973759;28;20079;-58
2022/05/15 06:16:47;;;;;;;8.63;6.50;;;14.70;99.90;;;;;;4968573;28;20122;-57
2022/05/15 06:19:14;;;;;;;10.20;7.20;;;14.90;99.90;;;;;;4978601;28;20043;-59
2022/05/15 06:21:41;;;;;;;9.35;6.72;;;15.00;99.90;;;;;;4978873;28;20039;-58
2022/05/15 06:24:08;;;;;;;9.52;6.32;;;15.10;99.90;;;;;;4976818;28;20062;-59
2022/05/15 06:26:35;;;;;;;9.32;5.82;;;15.20;99.90;;;;;;4977212;28;20744;-59
2022/05/15 06:29:02;;;;;;;13.23;6.75;;;15.30;99.90;;;;;;4976464;28;20054;-58
2022/05/15 06:31:29;;;;;;;8.13;6.05;;;15.40;99.90;;;;;;4992619;28;20318;-59
2022/05/15 06:33:56;;;;;;;8.95;6.07;;;15.50;99.90;;;;;;4976432;28;20049;-57
2022/05/15 06:36:23;;;;;;;12.02;6.95;;;15.70;99.90;;;;;;4977849;28;20049;-59
2022/05/15 06:38:51;;;;;;;7.32;6.10;;;15.80;99.90;;;;;;4969492;28;20038;-60
2022/05/15 06:41:18;;;;;;;8.50;6.22;;;15.90;99.90;;;;;;4963961;28;20047;-61
2022/05/15 06:43:46;;;;;;;17.58;6.38;;;16.00;99.90;;;;;;4959243;28;20513;-62
2022/05/15 06:46:13;;;;;;;8.70;6.30;;;16.10;99.90;;;;;;4971539;28;20157;-57
2022/05/15 06:48:40;;;;;;;8.68;6.53;;;16.20;99.90;;;;;;4976865;28;20803;-58
2022/05/15 06:51:07;;;;;;;10.20;7.00;;;16.30;99.90;;;;;;4975651;28;20050;-60
2022/05/15 06:53:35;;;;;;;9.85;6.15;;;16.40;99.90;;;;;;4976833;28;20591;-59
2022/05/15 06:58:48;;;;;;;7.47;5.57;;;16.60;99.90;;;;;;4973041;28;20062;-60
2022/05/15 07:01:15;;;;;;;8.63;5.68;;;16.70;99.90;;;;;;4959549;28;20125;-64
2022/05/15 07:03:42;;;;;;;9.50;5.90;;;16.90;99.90;;;;;;4957355;28;20600;-60
2022/05/15 07:06:10;;;;;;;6.18;5.57;;;17.10;99.90;;;;;;4956805;28;20051;-65
2022/05/15 07:08:37;;;;;;;8.18;5.88;;;17.20;99.90;;;;;;4955164;28;20556;-49
2022/05/15 07:11:04;;;;;;;10.93;4.80;;;17.40;99.90;;;;;;4972536;28;20047;-48
2022/05/15 07:13:32;;;;;;;7.35;4.90;;;17.50;99.90;;;;;;4956002;28;20043;-50
2022/05/15 07:16:00;;;;;;;9.13;6.32;;;17.70;99.90;;;;;;4962405;28;20034;-51
2022/05/15 07:18:27;;;;;;;9.05;5.65;;;17.80;99.90;;;;;;4959329;28;20050;-54
2022/05/15 07:20:54;;;;;;;8.65;5.85;;;18.00;99.90;;;;;;4976345;28;20061;-50
2022/05/15 07:23:22;;;;;;;8.45;5.43;;;18.20;99.90;;;;;;4975464;28;20053;-52
2022/05/15 07:25:50;;;;;;;9.90;5.30;;;18.30;99.90;;;;;;4976742;28;20666;-53
2022/05/15 07:28:17;;;;;;;6.95;5.82;;;18.50;99.90;;;;;;4976813;28;20057;-59
2022/05/15 07:30:44;;;;;;;11.23;7.05;;;18.60;99.90;;;;;;4975079;28;20062;-59
2022/05/15 07:33:11;;;;;;;9.90;5.57;;;18.70;99.90;;;;;;4975703;28;20077;-60
2022/05/15 07:35:38;;;;;;;6.95;5.13;;;18.80;99.90;;;;;;4975711;28;20045;-61
2022/05/15 07:38:05;;;;;;;8.20;5.55;;;19.00;99.90;;;;;;4976423;28;20213;-63
2022/05/15 07:40:33;;;;;;;8.23;5.97;;;19.10;99.90;;;;;;4962915;28;20070;-61
2022/05/15 07:43:05;;;;;;;7.55;5.93;;;19.20;99.90;;;;;;4977346;28;20697;-64
2022/05/15 07:45:33;;;;;;;10.02;6.40;;;19.30;99.90;;;;;;4974731;28;20050;-67
2022/05/15 07:48:01;;;;;;;10.32;5.82;;;19.50;99.90;;;;;;4974847;28;20567;-65
2022/05/15 07:50:28;;;;;;;10.38;6.32;;;19.50;99.90;;;;;;4975415;28;20045;-64
2022/05/15 07:52:55;;;;;;;12.20;4.70;;;19.60;99.90;;;;;;4976262;28;20069;-64
2022/05/15 07:55:22;;;;;;;9.60;6.30;;;19.60;99.90;;;;;;4974865;28;20484;-64
2022/05/15 07:57:49;;;;;;;9.13;5.35;;;19.70;99.90;;;;;;4976246;28;20038;-67
2022/05/15 08:00:18;;;;;;;11.95;5.93;;;19.80;99.90;;;;;;4972490;28;20130;-66
2022/05/15 08:02:46;;;;;;;8.45;5.55;;;19.90;99.90;;;;;;4976625;28;20436;-61
2022/05/15 08:08:09;;;;;;;8.35;5.07;;;20.60;99.90;;;;;;4974941;28;20050;-70
2022/05/15 08:10:41;;;;;;;7.38;6.00;;;21.00;99.90;;;;;;4975221;28;20551;-64
2022/05/15 08:13:12;;;;;;;10.95;5.90;;;21.40;99.90;;;;;;4975201;28;20050;-62
2022/05/15 08:15:41;;;;;;;9.07;5.45;;;21.90;99.90;;;;;;4976671;28;20121;-62
2022/05/15 08:23:54;;;;;;;10.48;5.95;;;23.00;99.90;;;;;;4991591;28;20058;-59
2022/05/15 08:26:21;;;;;;;7.32;4.82;;;23.30;99.90;;;;;;4990841;28;20054;-60
2022/05/15 08:28:49;;;;;;;11.60;5.53;;;23.20;99.30;;;;;;4958760;28;20051;-62
2022/05/15 08:31:17;;;;;;;7.35;5.57;;;23.30;99.90;;;;;;4974412;28;20054;-61
2022/05/15 08:33:46;;;;;;;10.50;5.38;;;23.50;99.90;;;;;;4961128;28;20153;-61
2022/05/15 08:36:14;;;;;;;7.82;5.65;;;23.80;99.40;;;;;;4974130;28;20038;-62
2022/05/15 08:38:43;;;;;;;8.43;5.88;;;24.00;98.70;;;;;;4966655;28;20049;-62
2022/05/15 08:41:22;;;;;;;10.30;5.45;;;24.10;97.60;;;;;;4990088;28;20046;-62
2022/05/15 08:44:08;;;;;;;9.35;6.35;;;24.30;97.20;;;;;;4974432;28;20054;-62
2022/05/15 08:46:41;;;;;;;8.27;5.18;;;24.50;96.60;;;;;;4973929;28;20058;-62
2022/05/15 08:49:29;;;;;;;12.23;5.78;;;24.50;96.30;;;;;;4973727;28;20172;-62
2022/05/15 08:52:19;;;;;;;12.75;5.60;;;24.60;95.80;;;;;;4973501;28;20038;-62
2022/05/15 08:54:54;;;;;;;12.15;5.82;;;24.70;94.80;;;;;;4975560;28;20058;-62
2022/05/15 08:57:44;;;;;;;9.05;5.45;;;24.80;93.40;;;;;;4957302;28;20050;-62
2022/05/15 09:00:14;;;;;;;8.20;4.95;;;24.90;93.40;;;;;;4973179;28;20042;-62
2022/05/15 09:02:44;;;;;;;8.30;5.10;;;25.00;92.60;;;;;;4969746;28;20687;-62
2022/05/15 09:05:13;;;;;;;10.82;5.43;;;25.00;92.20;;;;;;4970835;28;20498;-62
2022/05/15 09:08:18;;;;;;;10.70;5.10;;;25.10;92.70;;;;;;4970153;28;20051;-62
2022/05/15 09:11:03;;;;;;;8.77;5.18;;;25.30;92.60;;;;;;4970167;28;20050;-62
2022/05/15 09:13:39;;;;;;;8.95;4.97;;;25.50;90.50;;;;;;4954193;28;20050;-62
2022/05/15 09:16:19;;;;;;;11.07;6.38;;;25.60;91.50;;;;;;4976170;28;20944;-62
2022/05/15 09:18:46;;;;;;;10.77;5.05;;;25.80;86.80;;;;;;4975021;28;20043;-62
2022/05/15 09:21:17;;;;;;;5.35;4.47;;;25.70;87.40;;;;;;4957168;28;20541;-62
2022/05/15 09:23:51;;;;;;;6.50;4.53;;;25.70;88.20;;;;;;4973870;28;20058;-62
2022/05/15 09:26:39;;;;;;;5.95;4.25;;;25.80;86.20;;;;;;4973251;28;20055;-62
2022/05/15 09:29:15;;;;;;;10.68;5.35;;;25.90;86.90;;;;;;4972620;28;20695;-63
2022/05/15 09:31:42;;;;;;;6.53;5.07;;;26.00;85.00;;;;;;4974515;28;20054;-62
2022/05/15 09:34:28;;;;;;;6.40;4.70;;;26.20;83.70;;;;;;4974267;28;20146;-62
2022/05/15 09:40:08;;;;;;;8.60;5.18;;;26.50;80.00;;;;;;4970271;28;20050;-63
2022/05/15 09:45:25;;;;;;;7.25;4.50;;;26.60;78.80;;;;;;4978694;28;20168;-61
2022/05/15 09:47:52;;;;;;;8.65;4.60;;;26.60;76.00;;;;;;4976703;28;20046;-61
2022/05/15 09:50:41;;;;;;;7.70;4.38;;;26.70;76.00;;;;;;4977186;28;20046;-61
2022/05/15 09:53:33;;;;;;;7.68;4.43;;;26.70;74.70;;;;;;4968508;28;20090;-62
2022/05/15 09:56:03;;;;;;;5.75;4.13;;;26.80;74.10;;;;;;4976613;28;20047;-62
2022/05/15 09:58:59;;;;;;;6.53;4.93;;;26.90;73.20;;;;;;4960172;28;20068;-61
2022/05/15 10:01:33;;;;;;;8.63;4.20;;;27.00;73.00;;;;;;4958279;28;20093;-61
2022/05/15 10:04:03;;;;;;;13.27;5.32;;;27.10;70.10;;;;;;4973382;28;20148;-62
2022/05/15 10:06:47;;;;;;;9.57;4.10;;;27.10;68.40;;;;;;4976740;28;20054;-61
2022/05/15 10:09:22;;;;;;;14.10;5.03;;;27.00;68.90;;;;;;4976164;28;20535;-61
2022/05/15 10:11:57;;;;;;;9.30;4.63;;;26.90;68.20;;;;;;4977067;28;20347;-61
2022/05/15 10:14:31;;;;;;;10.18;4.30;;;26.80;69.40;;;;;;4976376;28;20122;-61
2022/05/15 10:17:00;;;;;;;7.55;4.82;;;26.80;68.70;;;;;;4976512;28;20038;-61
2022/05/15 10:19:50;;;;;;;7.18;4.30;;;26.80;66.30;;;;;;4976604;28;20109;-61
2022/05/15 10:22:27;;;;;;;13.82;5.30;;;26.80;67.30;;;;;;4976393;28;20057;-61
2022/05/15 10:25:17;;;;;;;6.10;3.67;;;26.70;67.40;;;;;;4976761;28;20140;-62
2022/05/15 10:27:54;;;;;;;5.35;3.95;;;26.70;65.90;;;;;;4960193;28;20085;-61
2022/05/15 10:30:29;;;;;;;7.80;4.32;;;26.70;65.90;;;;;;4976847;28;20796;-62
2022/05/15 10:33:11;;;;;;;7.30;4.20;;;26.80;65.70;;;;;;4977527;28;20061;-62
2022/05/15 10:36:03;;;;;;;6.82;4.03;;;27.00;64.90;;;;;;4975719;28;20105;-62
2022/05/15 10:38:54;;;;;;;4.18;3.78;;;27.20;64.30;;;;;;4976774;28;20110;-60
2022/05/15 10:42:07;;;;;;;7.85;4.03;;;27.40;62.90;;;;;;4963587;28;20494;-65
2022/05/15 10:44:50;;;;;;;7.88;4.05;;;27.40;60.40;;;;;;4938857;28;20054;-66
2022/05/15 10:47:21;;;;;;;8.27;3.75;;;27.40;61.80;;;;;;4956384;28;20050;-65
2022/05/15 10:49:57;;;;;;;5.78;4.03;;;27.60;61.60;;;;;;4958454;28;20035;-66
2022/05/15 10:52:39;;;;;;;10.27;4.43;;;27.70;61.10;;;;;;4956110;28;20046;-66
2022/05/15 10:57:59;;;;;;;8.93;3.95;;;27.90;58.90;;;;;;4956065;28;20046;-65
2022/05/15 11:00:44;;;;;;;9.60;3.90;;;28.00;58.80;;;;;;4956401;28;20069;-66
2022/05/15 11:03:31;;;;;;;5.43;3.50;;;28.10;58.30;;;;;;4969192;28;20046;-67
2022/05/15 11:06:17;;;;;;;4.07;3.50;;;28.20;57.80;;;;;;4940397;28;20054;-65
2022/05/15 11:08:47;;;;;;;14.35;3.90;;;28.20;58.20;;;;;;4984914;28;20133;-66
2022/05/15 11:11:52;;;;;;;7.55;3.90;;;28.20;57.10;;;;;;4976159;28;20308;-63
2022/05/15 11:14:50;;;;;;;6.40;3.70;;;28.20;56.40;;;;;;4960074;28;20726;-62
2022/05/15 11:17:23;;;;;;;7.40;3.47;;;28.20;55.70;;;;;;4959424;28;20050;-62
2022/05/15 11:19:56;;;;;;;3.85;3.42;;;28.10;55.90;;;;;;4975184;28;20738;-62
2022/05/15 11:22:52;;;;;;;5.80;4.20;;;28.10;56.90;;;;;;4975494;28;20046;-62
2022/05/15 11:25:32;;;;;;;7.43;3.70;;;28.10;55.90;;;;;;4959133;28;20050;-62
2022/05/15 11:28:19;;;;;;;5.50;3.60;;;28.10;56.20;;;;;;4974940;28;20050;-62
2022/05/15 11:30:59;;;;;;;4.63;4.22;;;28.20;56.70;;;;;;4975244;28;20046;-62
2022/05/15 11:33:46;;;;;;;10.20;4.13;;;28.30;55.70;;;;;;4974939;28;20092;-62
2022/05/15 11:36:29;;;;;;;11.18;4.25;;;28.50;56.90;;;;;;4975070;28;20141;-62
2022/05/15 11:38:59;;;;;;;4.10;3.60;;;28.60;56.90;;;;;;4951217;28;20667;-62
2022/05/15 11:41:36;;;;;;;5.47;3.80;;;28.70;56.50;;;;;;4961680;28;20089;-62
2022/05/15 11:44:18;;;;;;;5.57;3.70;;;28.70;54.60;;;;;;4971744;28;21016;-62
2022/05/15 11:46:45;;;;;;;8.75;4.00;;;28.70;55.40;;;;;;4972228;28;20062;-62
2022/05/15 11:49:32;;;;;;;9.27;3.30;;;28.80;55.60;;;;;;4971560;28;20988;-62
2022/05/15 11:52:05;;;;;;;9.43;3.95;;;29.00;55.20;;;;;;4955302;28;20058;-62
2022/05/15 11:54:39;;;;;;;6.65;3.50;;;29.20;54.20;;;;;;4954817;28;20046;-62
2022/05/15 11:57:13;;;;;;;6.70;3.55;;;29.00;52.30;;;;;;4954947;28;20043;-62
2022/05/15 11:59:48;;;;;;;8.70;4.03;;;29.10;52.90;;;;;;4955025;28;20078;-63
2022/05/15 12:02:21;;;;;;;7.18;3.75;;;29.20;53.30;;;;;;4955824;28;20061;-62
2022/05/15 12:05:09;;;;;;;6.20;3.88;;;29.10;53.00;;;;;;4972434;28;20157;-63
2022/05/15 12:08:07;;;;;;;9.52;4.15;;;29.10;52.80;;;;;;4990201;28;20060;-62
2022/05/15 12:10:34;;;;;;;6.30;4.28;;;29.20;54.30;;;;;;4974727;28;20082;-62
2022/05/15 12:13:04;;;;;;;7.25;3.38;;;29.40;53.90;;;;;;4974523;28;20053;-62
2022/05/15 12:15:39;;;;;;;6.40;3.80;;;29.40;52.20;;;;;;4973878;28;20054;-62
2022/05/15 12:18:29;;;;;;;7.40;4.15;;;29.50;51.50;;;;;;4974428;28;20315;-63
2022/05/15 12:20:57;;;;;;;9.55;3.85;;;29.50;52.00;;;;;;4974540;28;20053;-62
2022/05/15 12:23:37;;;;;;;4.47;3.25;;;29.60;52.20;;;;;;4974243;28;20657;-63
2022/05/15 12:26:20;;;;;;;8.60;3.55;;;29.80;50.80;;;;;;4974107;28;20573;-63
2022/05/15 12:29:04;;;;;;;9.32;5.38;;;29.90;50.10;;;;;;4974348;28;20529;-63
2022/05/15 12:31:42;;;;;;;5.78;3.63;;;29.90;50.30;;;;;;4975837;28;20129;-63
2022/05/15 12:34:35;;;;;;;14.35;6.45;;;29.90;49.60;;;;;;4954858;28;20129;-62
2022/05/15 12:37:06;;;;;;;8.05;3.17;;;29.90;50.70;;;;;;4970577;28;21023;-62
2022/05/15 12:39:37;;;;;;;4.55;3.35;;;29.90;50.30;;;;;;4973231;28;20062;-62
2022/05/15 12:42:16;;;;;;;4.35;2.97;;;29.90;49.10;;;;;;4955240;28;20051;-62
2022/05/15 12:44:44;;;;;;;9.68;4.45;;;29.80;50.20;;;;;;4955180;28;20051;-62
2022/05/15 12:47:21;;;;;;;8.60;3.65;;;29.80;49.90;;;;;;4954460;28;20042;-63
2022/05/15 12:49:59;;;;;;;5.15;3.53;;;29.90;50.90;;;;;;4954471;28;20057;-61
2022/05/15 12:52:36;;;;;;;6.88;3.22;;;30.00;50.10;;;;;;4954827;28;20162;-61
2022/05/15 12:55:10;;;;;;;7.60;4.10;;;30.10;50.20;;;;;;4953964;28;20874;-62
2022/05/15 12:57:46;;;;;;;7.43;3.97;;;30.10;48.80;;;;;;4953972;28;20046;-61
2022/05/15 13:00:18;;;;;;;10.43;3.67;;;30.20;48.00;;;;;;4954258;28;20081;-62
2022/05/15 13:02:47;;;;;;;5.05;3.17;;;30.30;47.80;;;;;;4954519;28;20047;-61
2022/05/15 13:05:28;;;;;;;7.55;3.33;;;30.30;47.30;;;;;;4960130;28;20035;-61
2022/05/15 13:07:59;;;;;;;3.92;3.25;;;30.30;47.50;;;;;;4972978;28;20132;-61
2022/05/15 13:10:33;;;;;;;8.75;3.38;;;30.40;47.10;;;;;;4973414;28;20625;-61
2022/05/15 13:13:03;;;;;;;9.07;3.22;;;30.40;46.90;;;;;;4973671;28;20051;-63
2022/05/15 13:15:32;;;;;;;5.65;3.10;;;30.50;45.80;;;;;;4973079;28;20038;-62
2022/05/15 13:18:09;;;;;;;11.55;3.55;;;30.70;46.40;;;;;;4989015;28;20121;-62
2022/05/15 13:20:42;;;;;;;7.18;3.75;;;30.80;46.70;;;;;;4973871;28;20224;-67
2022/05/15 13:23:11;;;;;;;7.78;3.58;;;30.80;45.50;;;;;;4973422;28;20081;-64
2022/05/15 13:25:42;;;;;;;9.75;3.13;;;30.70;46.30;;;;;;4973443;28;20662;-64
2022/05/15 13:28:10;;;;;;;5.47;3.55;;;30.50;44.70;;;;;;4973193;28;20092;-63
2022/05/15 13:30:39;;;;;;;4.63;3.03;;;30.40;44.80;;;;;;4956959;28;20129;-63
2022/05/15 13:33:10;;;;;;;7.45;3.47;;;30.20;45.70;;;;;;4963313;28;20081;-64
2022/05/15 13:35:44;;;;;;;3.45;2.63;;;30.20;44.80;;;;;;4971952;28;20499;-61